sensor_id;sensor_type;location;lat;lon;timestamp;P1;durP1;ratioP1;P2;durP2;ratioP2
13805;SDS011;6974;53.606;9.872;2023-04-30T00:01:24;11.73;;;5.00;;
13805;SDS011;6974;53.606;9.872;2023-04-30T00:03:52;9.67;;;4.80;;
13805;SDS011;6974;53.606;9.872;2023-04-30T00:06:19;11.53;;;4.63;;
13805;SDS011;6974;53.606;9.872;2023-04-30T00:08:46;13.70;;;5.13;;
13805;SDS011;6974;53.606;9.872;2023-04-30T00:11:13;10.83;;;4.40;;
13805;SDS011;6974;53.606;9.872;2023-04-30T00:13:40;13.07;;;5.50;;
13805;SDS011;6974;53.606;9.872;2023-04-30T00:16:07;10.33;;;4.40;;
13805;SDS011;6974;53.606;9.872;2023-04-30T00:18:34;12.37;;;4.93;;
13805;SDS011;6974;53.606;9.872;2023-04-30T00:21:03;9.00;;;4.23;;
13805;SDS011;6974;53.606;9.872;2023-04-30T00:23:30;9.07;;;4.20;;
13805;SDS011;6974;53.606;9.872;2023-04-30T00:25:57;7.27;;;4.57;;
13805;SDS011;6974;53.606;9.872;2023-04-30T00:28:23;11.77;;;4.57;;
13805;SDS011;6974;53.606;9.872;2023-04-30T00:30:50;7.73;;;4.00;;
13805;SDS011;6974;53.606;9.872;2023-04-30T00:33:17;11.13;;;4.37;;
13805;SDS011;6974;53.606;9.872;2023-04-30T00:35:44;11.50;;;4.07;;
13805;SDS011;6974;53.606;9.872;2023-04-30T00:38:13;7.03;;;3.90;;
13805;SDS011;6974;53.606;9.872;2023-04-30T00:40:40;11.97;;;4.63;;
13805;SDS011;6974;53.606;9.872;2023-04-30T00:43:07;14.33;;;5.17;;
13805;SDS011;6974;53.606;9.872;2023-04-30T00:45:34;11.53;;;4.10;;
13805;SDS011;6974;53.606;9.872;2023-04-30T00:48:01;8.57;;;4.37;;
13805;SDS011;6974;53.606;9.872;2023-04-30T00:50:28;9.23;;;4.33;;
13805;SDS011;6974;53.606;9.872;2023-04-30T00:52:54;7.70;;;4.23;;
13805;SDS011;6974;53.606;9.872;2023-04-30T00:55:24;7.67;;;4.30;;
13805;SDS011;6974;53.606;9.872;2023-04-30T00:57:51;9.20;;;5.00;;
13805;SDS011;6974;53.606;9.872;2023-04-30T01:00:19;10.53;;;4.97;;
13805;SDS011;6974;53.606;9.872;2023-04-30T01:02:46;8.87;;;4.20;;
13805;SDS011;6974;53.606;9.872;2023-04-30T01:05:14;10.73;;;4.23;;
13805;SDS011;6974;53.606;9.872;2023-04-30T01:07:41;7.27;;;4.07;;
13805;SDS011;6974;53.606;9.872;2023-04-30T01:10:10;12.37;;;4.80;;
13805;SDS011;6974;53.606;9.872;2023-04-30T01:12:40;12.70;;;4.50;;
13805;SDS011;6974;53.606;9.872;2023-04-30T01:15:13;11.30;;;4.20;;
13805;SDS011;6974;53.606;9.872;2023-04-30T01:17:47;9.30;;;4.50;;
13805;SDS011;6974;53.606;9.872;2023-04-30T01:20:21;11.03;;;4.57;;
13805;SDS011;6974;53.606;9.872;2023-04-30T01:22:50;6.63;;;4.30;;
13805;SDS011;6974;53.606;9.872;2023-04-30T01:25:34;8.80;;;4.30;;
13805;SDS011;6974;53.606;9.872;2023-04-30T01:28:24;9.63;;;4.47;;
13805;SDS011;6974;53.606;9.872;2023-04-30T01:30:53;10.13;;;4.77;;
13805;SDS011;6974;53.606;9.872;2023-04-30T01:33:20;9.10;;;4.60;;
13805;SDS011;6974;53.606;9.872;2023-04-30T01:36:06;10.67;;;4.40;;
13805;SDS011;6974;53.606;9.872;2023-04-30T01:38:49;9.37;;;4.30;;
13805;SDS011;6974;53.606;9.872;2023-04-30T01:41:28;9.07;;;4.30;;
13805;SDS011;6974;53.606;9.872;2023-04-30T01:44:05;6.50;;;4.17;;
13805;SDS011;6974;53.606;9.872;2023-04-30T01:46:42;7.87;;;4.67;;
13805;SDS011;6974;53.606;9.872;2023-04-30T01:49:21;16.23;;;5.07;;
13805;SDS011;6974;53.606;9.872;2023-04-30T01:51:57;8.30;;;4.27;;
13805;SDS011;6974;53.606;9.872;2023-04-30T01:54:32;12.33;;;4.80;;
13805;SDS011;6974;53.606;9.872;2023-04-30T01:57:04;9.93;;;4.53;;
13805;SDS011;6974;53.606;9.872;2023-04-30T01:59:34;11.13;;;4.83;;
13805;SDS011;6974;53.606;9.872;2023-04-30T02:02:03;6.33;;;4.90;;
13805;SDS011;6974;53.606;9.872;2023-04-30T02:04:31;7.87;;;4.90;;
13805;SDS011;6974;53.606;9.872;2023-04-30T02:06:58;13.47;;;5.63;;
13805;SDS011;6974;53.606;9.872;2023-04-30T02:09:25;9.93;;;5.00;;
13805;SDS011;6974;53.606;9.872;2023-04-30T02:11:51;9.90;;;5.70;;
13805;SDS011;6974;53.606;9.872;2023-04-30T02:14:18;8.90;;;4.77;;
13805;SDS011;6974;53.606;9.872;2023-04-30T02:16:47;10.30;;;4.93;;
13805;SDS011;6974;53.606;9.872;2023-04-30T02:19:13;11.67;;;4.73;;
13805;SDS011;6974;53.606;9.872;2023-04-30T02:21:40;9.33;;;4.97;;
13805;SDS011;6974;53.606;9.872;2023-04-30T02:24:07;11.80;;;4.93;;
13805;SDS011;6974;53.606;9.872;2023-04-30T02:26:34;7.80;;;5.13;;
13805;SDS011;6974;53.606;9.872;2023-04-30T02:29:01;8.37;;;4.83;;
13805;SDS011;6974;53.606;9.872;2023-04-30T02:31:27;10.63;;;4.83;;
13805;SDS011;6974;53.606;9.872;2023-04-30T02:33:56;8.73;;;5.10;;
13805;SDS011;6974;53.606;9.872;2023-04-30T02:36:22;13.47;;;4.90;;
13805;SDS011;6974;53.606;9.872;2023-04-30T02:38:49;10.03;;;4.63;;
13805;SDS011;6974;53.606;9.872;2023-04-30T02:41:16;8.97;;;4.83;;
13805;SDS011;6974;53.606;9.872;2023-04-30T02:43:43;8.67;;;5.00;;
13805;SDS011;6974;53.606;9.872;2023-04-30T02:46:10;10.57;;;5.00;;
13805;SDS011;6974;53.606;9.872;2023-04-30T02:48:36;9.87;;;5.43;;
13805;SDS011;6974;53.606;9.872;2023-04-30T02:51:05;6.07;;;4.80;;
13805;SDS011;6974;53.606;9.872;2023-04-30T02:53:31;8.53;;;4.80;;
13805;SDS011;6974;53.606;9.872;2023-04-30T02:55:58;9.40;;;4.90;;
13805;SDS011;6974;53.606;9.872;2023-04-30T02:58:25;9.27;;;5.33;;
13805;SDS011;6974;53.606;9.872;2023-04-30T03:00:52;12.73;;;4.60;;
13805;SDS011;6974;53.606;9.872;2023-04-30T03:03:20;9.57;;;4.50;;
13805;SDS011;6974;53.606;9.872;2023-04-30T03:05:46;8.27;;;4.67;;
13805;SDS011;6974;53.606;9.872;2023-04-30T03:08:15;11.93;;;5.10;;
13805;SDS011;6974;53.606;9.872;2023-04-30T03:10:41;8.70;;;4.37;;
13805;SDS011;6974;53.606;9.872;2023-04-30T03:13:08;9.27;;;4.43;;
13805;SDS011;6974;53.606;9.872;2023-04-30T03:15:35;9.97;;;4.87;;
13805;SDS011;6974;53.606;9.872;2023-04-30T03:18:02;11.53;;;5.27;;
13805;SDS011;6974;53.606;9.872;2023-04-30T03:20:29;10.83;;;5.10;;
13805;SDS011;6974;53.606;9.872;2023-04-30T03:22:56;11.20;;;4.87;;
13805;SDS011;6974;53.606;9.872;2023-04-30T03:25:24;10.73;;;5.33;;
13805;SDS011;6974;53.606;9.872;2023-04-30T03:27:51;8.63;;;4.67;;
13805;SDS011;6974;53.606;9.872;2023-04-30T03:30:18;11.13;;;5.03;;
13805;SDS011;6974;53.606;9.872;2023-04-30T03:32:45;8.47;;;5.00;;
13805;SDS011;6974;53.606;9.872;2023-04-30T03:35:11;10.00;;;5.33;;
13805;SDS011;6974;53.606;9.872;2023-04-30T03:37:38;8.70;;;5.10;;
13805;SDS011;6974;53.606;9.872;2023-04-30T03:40:06;6.10;;;4.67;;
13805;SDS011;6974;53.606;9.872;2023-04-30T03:42:35;7.60;;;4.37;;
13805;SDS011;6974;53.606;9.872;2023-04-30T03:45:01;6.87;;;4.77;;
13805;SDS011;6974;53.606;9.872;2023-04-30T03:47:28;10.83;;;5.57;;
13805;SDS011;6974;53.606;9.872;2023-04-30T03:49:55;9.97;;;5.23;;
13805;SDS011;6974;53.606;9.872;2023-04-30T03:52:22;10.33;;;5.37;;
13805;SDS011;6974;53.606;9.872;2023-04-30T03:54:50;9.23;;;5.27;;
13805;SDS011;6974;53.606;9.872;2023-04-30T03:57:17;12.57;;;5.07;;
13805;SDS011;6974;53.606;9.872;2023-04-30T03:59:45;9.37;;;5.17;;
13805;SDS011;6974;53.606;9.872;2023-04-30T04:02:12;7.90;;;4.63;;
13805;SDS011;6974;53.606;9.872;2023-04-30T04:04:39;10.43;;;5.50;;
13805;SDS011;6974;53.606;9.872;2023-04-30T04:07:06;12.30;;;5.90;;
13805;SDS011;6974;53.606;9.872;2023-04-30T04:09:33;11.40;;;5.80;;
13805;SDS011;6974;53.606;9.872;2023-04-30T04:12:00;8.53;;;5.37;;
13805;SDS011;6974;53.606;9.872;2023-04-30T04:14:27;9.07;;;5.90;;
13805;SDS011;6974;53.606;9.872;2023-04-30T04:16:55;9.40;;;6.17;;
13805;SDS011;6974;53.606;9.872;2023-04-30T04:19:24;10.70;;;5.70;;
13805;SDS011;6974;53.606;9.872;2023-04-30T04:21:50;8.63;;;5.37;;
13805;SDS011;6974;53.606;9.872;2023-04-30T04:24:17;10.20;;;6.00;;
13805;SDS011;6974;53.606;9.872;2023-04-30T04:26:44;9.97;;;5.13;;
13805;SDS011;6974;53.606;9.872;2023-04-30T04:29:11;8.27;;;5.80;;
13805;SDS011;6974;53.606;9.872;2023-04-30T04:31:38;10.47;;;6.17;;
13805;SDS011;6974;53.606;9.872;2023-04-30T04:34:08;10.50;;;6.40;;
13805;SDS011;6974;53.606;9.872;2023-04-30T04:36:35;10.07;;;6.03;;
13805;SDS011;6974;53.606;9.872;2023-04-30T04:39:02;9.07;;;5.83;;
13805;SDS011;6974;53.606;9.872;2023-04-30T04:41:29;8.90;;;6.13;;
13805;SDS011;6974;53.606;9.872;2023-04-30T04:43:56;12.57;;;6.27;;
13805;SDS011;6974;53.606;9.872;2023-04-30T04:46:23;12.03;;;7.47;;
13805;SDS011;6974;53.606;9.872;2023-04-30T04:48:52;11.23;;;6.60;;
13805;SDS011;6974;53.606;9.872;2023-04-30T04:51:20;13.60;;;6.77;;
13805;SDS011;6974;53.606;9.872;2023-04-30T04:53:47;13.83;;;7.00;;
13805;SDS011;6974;53.606;9.872;2023-04-30T04:56:14;9.17;;;6.53;;
13805;SDS011;6974;53.606;9.872;2023-04-30T04:58:41;10.90;;;6.93;;
13805;SDS011;6974;53.606;9.872;2023-04-30T05:01:09;11.47;;;6.90;;
13805;SDS011;6974;53.606;9.872;2023-04-30T05:03:36;10.77;;;6.37;;
13805;SDS011;6974;53.606;9.872;2023-04-30T05:06:03;7.53;;;6.07;;
13805;SDS011;6974;53.606;9.872;2023-04-30T05:08:31;9.27;;;6.50;;
13805;SDS011;6974;53.606;9.872;2023-04-30T05:10:58;12.50;;;6.53;;
13805;SDS011;6974;53.606;9.872;2023-04-30T05:13:25;9.17;;;6.03;;
13805;SDS011;6974;53.606;9.872;2023-04-30T05:15:52;12.63;;;7.10;;
13805;SDS011;6974;53.606;9.872;2023-04-30T05:18:19;12.33;;;6.43;;
13805;SDS011;6974;53.606;9.872;2023-04-30T05:20:46;9.63;;;6.07;;
13805;SDS011;6974;53.606;9.872;2023-04-30T05:23:13;10.13;;;6.70;;
13805;SDS011;6974;53.606;9.872;2023-04-30T05:25:41;10.13;;;6.30;;
13805;SDS011;6974;53.606;9.872;2023-04-30T05:28:08;11.67;;;6.13;;
13805;SDS011;6974;53.606;9.872;2023-04-30T05:30:35;9.10;;;6.07;;
13805;SDS011;6974;53.606;9.872;2023-04-30T05:33:02;9.80;;;5.73;;
13805;SDS011;6974;53.606;9.872;2023-04-30T05:35:28;10.07;;;6.13;;
13805;SDS011;6974;53.606;9.872;2023-04-30T05:37:55;15.57;;;6.90;;
13805;SDS011;6974;53.606;9.872;2023-04-30T05:40:22;12.53;;;5.83;;
13805;SDS011;6974;53.606;9.872;2023-04-30T05:42:50;7.87;;;5.53;;
13805;SDS011;6974;53.606;9.872;2023-04-30T05:45:17;10.93;;;6.10;;
13805;SDS011;6974;53.606;9.872;2023-04-30T05:47:44;11.73;;;6.17;;
13805;SDS011;6974;53.606;9.872;2023-04-30T05:50:11;9.57;;;5.57;;
13805;SDS011;6974;53.606;9.872;2023-04-30T05:52:38;9.07;;;5.63;;
13805;SDS011;6974;53.606;9.872;2023-04-30T05:55:05;9.60;;;5.20;;
13805;SDS011;6974;53.606;9.872;2023-04-30T05:57:33;15.33;;;5.23;;
13805;SDS011;6974;53.606;9.872;2023-04-30T06:00:01;13.30;;;4.87;;
13805;SDS011;6974;53.606;9.872;2023-04-30T06:02:30;6.87;;;4.80;;
13805;SDS011;6974;53.606;9.872;2023-04-30T06:04:57;10.93;;;5.20;;
13805;SDS011;6974;53.606;9.872;2023-04-30T06:07:25;11.37;;;4.83;;
13805;SDS011;6974;53.606;9.872;2023-04-30T06:09:52;10.10;;;4.50;;
13805;SDS011;6974;53.606;9.872;2023-04-30T06:12:19;8.20;;;4.33;;
13805;SDS011;6974;53.606;9.872;2023-04-30T06:14:47;9.87;;;4.30;;
13805;SDS011;6974;53.606;9.872;2023-04-30T06:17:15;6.50;;;3.77;;
13805;SDS011;6974;53.606;9.872;2023-04-30T06:19:42;10.43;;;4.30;;
13805;SDS011;6974;53.606;9.872;2023-04-30T06:22:09;7.60;;;4.17;;
13805;SDS011;6974;53.606;9.872;2023-04-30T06:24:36;9.87;;;4.13;;
13805;SDS011;6974;53.606;9.872;2023-04-30T06:27:02;8.73;;;4.10;;
13805;SDS011;6974;53.606;9.872;2023-04-30T06:29:29;6.33;;;3.83;;
13805;SDS011;6974;53.606;9.872;2023-04-30T06:31:56;9.23;;;3.97;;
13805;SDS011;6974;53.606;9.872;2023-04-30T06:34:24;8.33;;;4.27;;
13805;SDS011;6974;53.606;9.872;2023-04-30T06:36:51;6.83;;;4.23;;
13805;SDS011;6974;53.606;9.872;2023-04-30T06:39:18;7.43;;;3.97;;
13805;SDS011;6974;53.606;9.872;2023-04-30T06:41:45;7.23;;;3.87;;
13805;SDS011;6974;53.606;9.872;2023-04-30T06:44:12;9.03;;;4.07;;
13805;SDS011;6974;53.606;9.872;2023-04-30T06:46:39;8.93;;;3.87;;
13805;SDS011;6974;53.606;9.872;2023-04-30T06:49:06;8.53;;;4.50;;
13805;SDS011;6974;53.606;9.872;2023-04-30T06:51:34;7.47;;;3.83;;
13805;SDS011;6974;53.606;9.872;2023-04-30T06:54:01;5.40;;;3.00;;
13805;SDS011;6974;53.606;9.872;2023-04-30T06:56:28;7.40;;;3.27;;
13805;SDS011;6974;53.606;9.872;2023-04-30T06:58:54;7.70;;;3.43;;
13805;SDS011;6974;53.606;9.872;2023-04-30T07:01:21;5.13;;;3.10;;
13805;SDS011;6974;53.606;9.872;2023-04-30T07:03:48;8.83;;;3.60;;
13805;SDS011;6974;53.606;9.872;2023-04-30T07:06:16;11.23;;;4.07;;
13805;SDS011;6974;53.606;9.872;2023-04-30T07:08:45;11.27;;;3.70;;
13805;SDS011;6974;53.606;9.872;2023-04-30T07:11:12;6.17;;;3.47;;
13805;SDS011;6974;53.606;9.872;2023-04-30T07:13:39;7.47;;;3.10;;
13805;SDS011;6974;53.606;9.872;2023-04-30T07:16:06;5.30;;;3.03;;
13805;SDS011;6974;53.606;9.872;2023-04-30T07:18:34;7.17;;;3.83;;
13805;SDS011;6974;53.606;9.872;2023-04-30T07:21:01;10.30;;;3.80;;
13805;SDS011;6974;53.606;9.872;2023-04-30T07:23:29;8.60;;;3.80;;
13805;SDS011;6974;53.606;9.872;2023-04-30T07:25:57;8.10;;;3.80;;
13805;SDS011;6974;53.606;9.872;2023-04-30T07:28:24;6.27;;;3.30;;
13805;SDS011;6974;53.606;9.872;2023-04-30T07:30:51;6.47;;;3.20;;
13805;SDS011;6974;53.606;9.872;2023-04-30T07:33:18;7.67;;;3.87;;
13805;SDS011;6974;53.606;9.872;2023-04-30T07:35:45;6.83;;;3.63;;
13805;SDS011;6974;53.606;9.872;2023-04-30T07:38:11;8.03;;;4.10;;
13805;SDS011;6974;53.606;9.872;2023-04-30T07:40:38;7.13;;;3.60;;
13805;SDS011;6974;53.606;9.872;2023-04-30T07:43:06;8.43;;;3.63;;
13805;SDS011;6974;53.606;9.872;2023-04-30T07:45:34;6.63;;;2.80;;
13805;SDS011;6974;53.606;9.872;2023-04-30T07:48:01;7.50;;;3.33;;
13805;SDS011;6974;53.606;9.872;2023-04-30T07:50:28;6.50;;;3.33;;
13805;SDS011;6974;53.606;9.872;2023-04-30T07:52:57;6.90;;;3.50;;
13805;SDS011;6974;53.606;9.872;2023-04-30T07:55:24;9.33;;;3.50;;
13805;SDS011;6974;53.606;9.872;2023-04-30T07:57:51;7.90;;;3.23;;
13805;SDS011;6974;53.606;9.872;2023-04-30T08:00:19;10.50;;;3.67;;
13805;SDS011;6974;53.606;9.872;2023-04-30T08:02:46;7.43;;;3.70;;
13805;SDS011;6974;53.606;9.872;2023-04-30T08:05:14;7.00;;;3.57;;
13805;SDS011;6974;53.606;9.872;2023-04-30T08:07:41;8.93;;;3.93;;
13805;SDS011;6974;53.606;9.872;2023-04-30T08:10:08;5.13;;;3.37;;
13805;SDS011;6974;53.606;9.872;2023-04-30T08:12:36;8.80;;;3.50;;
13805;SDS011;6974;53.606;9.872;2023-04-30T08:15:03;6.80;;;3.40;;
13805;SDS011;6974;53.606;9.872;2023-04-30T08:17:33;7.03;;;3.57;;
13805;SDS011;6974;53.606;9.872;2023-04-30T08:20:00;9.73;;;3.83;;
13805;SDS011;6974;53.606;9.872;2023-04-30T08:22:28;7.77;;;3.43;;
13805;SDS011;6974;53.606;9.872;2023-04-30T08:24:55;10.07;;;3.90;;
13805;SDS011;6974;53.606;9.872;2023-04-30T08:27:22;4.87;;;3.37;;
13805;SDS011;6974;53.606;9.872;2023-04-30T08:29:49;5.33;;;3.10;;
13805;SDS011;6974;53.606;9.872;2023-04-30T08:32:17;8.47;;;3.70;;
13805;SDS011;6974;53.606;9.872;2023-04-30T08:34:46;5.67;;;3.00;;
13805;SDS011;6974;53.606;9.872;2023-04-30T08:37:12;6.67;;;3.23;;
13805;SDS011;6974;53.606;9.872;2023-04-30T08:39:39;5.23;;;3.17;;
13805;SDS011;6974;53.606;9.872;2023-04-30T08:42:07;5.70;;;3.17;;
13805;SDS011;6974;53.606;9.872;2023-04-30T08:44:34;6.03;;;3.20;;
13805;SDS011;6974;53.606;9.872;2023-04-30T08:47:03;7.40;;;3.30;;
13805;SDS011;6974;53.606;9.872;2023-04-30T08:49:33;4.60;;;3.13;;
13805;SDS011;6974;53.606;9.872;2023-04-30T08:52:02;5.03;;;3.33;;
13805;SDS011;6974;53.606;9.872;2023-04-30T08:54:30;6.90;;;3.20;;
13805;SDS011;6974;53.606;9.872;2023-04-30T08:56:57;5.37;;;3.20;;
13805;SDS011;6974;53.606;9.872;2023-04-30T08:59:24;4.43;;;3.00;;
13805;SDS011;6974;53.606;9.872;2023-04-30T09:01:51;10.10;;;3.70;;
13805;SDS011;6974;53.606;9.872;2023-04-30T09:04:18;5.33;;;3.37;;
13805;SDS011;6974;53.606;9.872;2023-04-30T09:06:45;6.37;;;3.13;;
13805;SDS011;6974;53.606;9.872;2023-04-30T09:09:13;5.13;;;3.33;;
13805;SDS011;6974;53.606;9.872;2023-04-30T09:11:41;7.77;;;3.20;;
13805;SDS011;6974;53.606;9.872;2023-04-30T09:14:09;6.13;;;2.90;;
13805;SDS011;6974;53.606;9.872;2023-04-30T09:16:46;6.73;;;3.43;;
13805;SDS011;6974;53.606;9.872;2023-04-30T09:19:23;6.80;;;3.30;;
13805;SDS011;6974;53.606;9.872;2023-04-30T09:21:50;8.03;;;3.50;;
13805;SDS011;6974;53.606;9.872;2023-04-30T09:24:18;5.00;;;3.10;;
13805;SDS011;6974;53.606;9.872;2023-04-30T09:26:45;4.63;;;2.83;;
13805;SDS011;6974;53.606;9.872;2023-04-30T09:29:12;8.37;;;3.60;;
13805;SDS011;6974;53.606;9.872;2023-04-30T09:31:40;7.13;;;3.43;;
13805;SDS011;6974;53.606;9.872;2023-04-30T09:34:08;4.57;;;3.03;;
13805;SDS011;6974;53.606;9.872;2023-04-30T09:36:36;5.77;;;3.43;;
13805;SDS011;6974;53.606;9.872;2023-04-30T09:39:06;7.97;;;2.97;;
13805;SDS011;6974;53.606;9.872;2023-04-30T09:41:37;7.67;;;3.47;;
13805;SDS011;6974;53.606;9.872;2023-04-30T09:44:04;6.37;;;3.67;;
13805;SDS011;6974;53.606;9.872;2023-04-30T09:46:31;4.40;;;2.90;;
13805;SDS011;6974;53.606;9.872;2023-04-30T09:49:00;4.80;;;3.10;;
13805;SDS011;6974;53.606;9.872;2023-04-30T09:51:30;6.33;;;3.17;;
13805;SDS011;6974;53.606;9.872;2023-04-30T09:53:58;5.60;;;3.43;;
13805;SDS011;6974;53.606;9.872;2023-04-30T09:56:28;5.27;;;3.00;;
13805;SDS011;6974;53.606;9.872;2023-04-30T09:58:59;5.50;;;3.10;;
13805;SDS011;6974;53.606;9.872;2023-04-30T10:01:29;5.77;;;3.30;;
13805;SDS011;6974;53.606;9.872;2023-04-30T10:04:01;5.47;;;3.20;;
13805;SDS011;6974;53.606;9.872;2023-04-30T10:06:28;5.87;;;3.40;;
13805;SDS011;6974;53.606;9.872;2023-04-30T10:08:59;6.87;;;3.60;;
13805;SDS011;6974;53.606;9.872;2023-04-30T10:11:31;6.73;;;3.33;;
13805;SDS011;6974;53.606;9.872;2023-04-30T10:14:05;5.80;;;2.90;;
13805;SDS011;6974;53.606;9.872;2023-04-30T10:16:36;3.33;;;3.00;;
13805;SDS011;6974;53.606;9.872;2023-04-30T10:19:09;3.83;;;3.00;;
13805;SDS011;6974;53.606;9.872;2023-04-30T10:21:41;6.30;;;2.93;;
13805;SDS011;6974;53.606;9.872;2023-04-30T10:24:11;5.53;;;2.97;;
13805;SDS011;6974;53.606;9.872;2023-04-30T10:26:39;7.20;;;3.53;;
13805;SDS011;6974;53.606;9.872;2023-04-30T10:29:09;7.40;;;3.67;;
13805;SDS011;6974;53.606;9.872;2023-04-30T10:31:37;5.70;;;3.27;;
13805;SDS011;6974;53.606;9.872;2023-04-30T10:34:09;6.20;;;3.50;;
13805;SDS011;6974;53.606;9.872;2023-04-30T10:36:41;5.83;;;3.00;;
13805;SDS011;6974;53.606;9.872;2023-04-30T10:39:09;8.43;;;3.67;;
13805;SDS011;6974;53.606;9.872;2023-04-30T10:41:37;6.37;;;3.27;;
13805;SDS011;6974;53.606;9.872;2023-04-30T10:44:05;4.27;;;3.00;;
13805;SDS011;6974;53.606;9.872;2023-04-30T10:46:34;4.70;;;3.00;;
13805;SDS011;6974;53.606;9.872;2023-04-30T10:49:01;5.97;;;3.57;;
13805;SDS011;6974;53.606;9.872;2023-04-30T10:51:45;4.63;;;3.43;;
13805;SDS011;6974;53.606;9.872;2023-04-30T10:54:14;10.13;;;3.97;;
13805;SDS011;6974;53.606;9.872;2023-04-30T10:56:43;7.00;;;3.60;;
13805;SDS011;6974;53.606;9.872;2023-04-30T10:59:11;6.70;;;3.70;;
13805;SDS011;6974;53.606;9.872;2023-04-30T11:04:22;5.77;;;3.50;;
13805;SDS011;6974;53.606;9.872;2023-04-30T11:06:53;6.10;;;3.80;;
13805;SDS011;6974;53.606;9.872;2023-04-30T11:09:23;5.70;;;3.03;;
13805;SDS011;6974;53.606;9.872;2023-04-30T11:12:01;5.77;;;3.60;;
13805;SDS011;6974;53.606;9.872;2023-04-30T11:14:30;6.07;;;3.20;;
13805;SDS011;6974;53.606;9.872;2023-04-30T11:16:59;6.80;;;3.53;;
13805;SDS011;6974;53.606;9.872;2023-04-30T11:19:26;5.63;;;3.13;;
13805;SDS011;6974;53.606;9.872;2023-04-30T11:24:50;6.70;;;3.23;;
13805;SDS011;6974;53.606;9.872;2023-04-30T11:27:28;8.03;;;3.90;;
13805;SDS011;6974;53.606;9.872;2023-04-30T11:29:56;5.93;;;3.70;;
13805;SDS011;6974;53.606;9.872;2023-04-30T11:32:26;6.63;;;3.37;;
13805;SDS011;6974;53.606;9.872;2023-04-30T11:34:59;7.03;;;3.53;;
13805;SDS011;6974;53.606;9.872;2023-04-30T11:37:29;6.97;;;3.23;;
13805;SDS011;6974;53.606;9.872;2023-04-30T11:39:58;5.47;;;3.43;;
13805;SDS011;6974;53.606;9.872;2023-04-30T11:42:27;6.93;;;3.60;;
13805;SDS011;6974;53.606;9.872;2023-04-30T11:45:01;5.23;;;3.50;;
13805;SDS011;6974;53.606;9.872;2023-04-30T11:47:40;5.47;;;3.57;;
13805;SDS011;6974;53.606;9.872;2023-04-30T11:50:08;7.70;;;3.57;;
13805;SDS011;6974;53.606;9.872;2023-04-30T11:52:37;5.20;;;3.40;;
13805;SDS011;6974;53.606;9.872;2023-04-30T11:55:04;7.83;;;3.77;;
13805;SDS011;6974;53.606;9.872;2023-04-30T11:57:41;5.90;;;3.60;;
13805;SDS011;6974;53.606;9.872;2023-04-30T12:00:09;5.47;;;3.60;;
13805;SDS011;6974;53.606;9.872;2023-04-30T12:02:37;4.90;;;3.33;;
13805;SDS011;6974;53.606;9.872;2023-04-30T12:05:10;4.60;;;3.40;;
13805;SDS011;6974;53.606;9.872;2023-04-30T12:07:43;6.00;;;3.13;;
13805;SDS011;6974;53.606;9.872;2023-04-30T12:10:11;4.07;;;3.17;;
13805;SDS011;6974;53.606;9.872;2023-04-30T12:12:38;5.47;;;3.50;;
13805;SDS011;6974;53.606;9.872;2023-04-30T12:15:12;5.20;;;2.77;;
13805;SDS011;6974;53.606;9.872;2023-04-30T12:17:42;5.70;;;3.23;;
13805;SDS011;6974;53.606;9.872;2023-04-30T12:20:10;4.10;;;3.40;;
13805;SDS011;6974;53.606;9.872;2023-04-30T12:22:38;5.40;;;2.90;;
13805;SDS011;6974;53.606;9.872;2023-04-30T12:25:06;4.77;;;3.37;;
13805;SDS011;6974;53.606;9.872;2023-04-30T12:27:35;7.43;;;3.10;;
13805;SDS011;6974;53.606;9.872;2023-04-30T12:30:04;5.87;;;3.20;;
13805;SDS011;6974;53.606;9.872;2023-04-30T12:32:36;4.70;;;3.20;;
13805;SDS011;6974;53.606;9.872;2023-04-30T12:35:12;6.30;;;3.13;;
13805;SDS011;6974;53.606;9.872;2023-04-30T12:37:40;5.57;;;3.17;;
13805;SDS011;6974;53.606;9.872;2023-04-30T12:40:08;6.17;;;3.50;;
13805;SDS011;6974;53.606;9.872;2023-04-30T12:42:36;4.43;;;3.53;;
13805;SDS011;6974;53.606;9.872;2023-04-30T12:45:03;5.90;;;3.50;;
13805;SDS011;6974;53.606;9.872;2023-04-30T12:47:31;7.10;;;3.70;;
13805;SDS011;6974;53.606;9.872;2023-04-30T12:49:58;5.17;;;3.00;;
13805;SDS011;6974;53.606;9.872;2023-04-30T12:52:27;6.13;;;3.53;;
13805;SDS011;6974;53.606;9.872;2023-04-30T12:54:54;6.60;;;3.47;;
13805;SDS011;6974;53.606;9.872;2023-04-30T12:57:21;4.53;;;3.40;;
13805;SDS011;6974;53.606;9.872;2023-04-30T12:59:57;5.83;;;3.50;;
13805;SDS011;6974;53.606;9.872;2023-04-30T13:02:26;8.60;;;3.97;;
13805;SDS011;6974;53.606;9.872;2023-04-30T13:04:56;5.10;;;3.10;;
13805;SDS011;6974;53.606;9.872;2023-04-30T13:07:33;6.53;;;3.73;;
13805;SDS011;6974;53.606;9.872;2023-04-30T13:10:04;5.23;;;3.20;;
13805;SDS011;6974;53.606;9.872;2023-04-30T13:12:32;7.03;;;3.70;;
13805;SDS011;6974;53.606;9.872;2023-04-30T13:14:59;4.87;;;3.23;;
13805;SDS011;6974;53.606;9.872;2023-04-30T13:17:27;4.53;;;3.30;;
13805;SDS011;6974;53.606;9.872;2023-04-30T13:19:54;16.23;;;5.20;;
13805;SDS011;6974;53.606;9.872;2023-04-30T13:22:21;6.07;;;3.93;;
13805;SDS011;6974;53.606;9.872;2023-04-30T13:24:50;6.97;;;3.80;;
13805;SDS011;6974;53.606;9.872;2023-04-30T13:27:17;7.70;;;3.57;;
13805;SDS011;6974;53.606;9.872;2023-04-30T13:29:44;7.53;;;4.03;;
13805;SDS011;6974;53.606;9.872;2023-04-30T13:32:11;6.17;;;3.80;;
13805;SDS011;6974;53.606;9.872;2023-04-30T13:34:38;5.93;;;3.50;;
13805;SDS011;6974;53.606;9.872;2023-04-30T13:37:04;5.67;;;3.60;;
13805;SDS011;6974;53.606;9.872;2023-04-30T13:39:31;7.43;;;3.90;;
13805;SDS011;6974;53.606;9.872;2023-04-30T13:41:59;5.40;;;3.50;;
13805;SDS011;6974;53.606;9.872;2023-04-30T13:44:26;5.47;;;3.40;;
13805;SDS011;6974;53.606;9.872;2023-04-30T13:46:56;6.77;;;3.97;;
13805;SDS011;6974;53.606;9.872;2023-04-30T13:49:23;7.63;;;4.10;;
13805;SDS011;6974;53.606;9.872;2023-04-30T13:51:50;4.83;;;3.30;;
13805;SDS011;6974;53.606;9.872;2023-04-30T13:54:17;8.70;;;4.30;;
13805;SDS011;6974;53.606;9.872;2023-04-30T13:56:44;5.30;;;3.30;;
13805;SDS011;6974;53.606;9.872;2023-04-30T13:59:12;7.50;;;4.20;;
13805;SDS011;6974;53.606;9.872;2023-04-30T14:01:39;5.37;;;3.50;;
13805;SDS011;6974;53.606;9.872;2023-04-30T14:04:06;6.03;;;3.47;;
13805;SDS011;6974;53.606;9.872;2023-04-30T14:06:33;6.90;;;3.60;;
13805;SDS011;6974;53.606;9.872;2023-04-30T14:09:00;6.70;;;3.77;;
13805;SDS011;6974;53.606;9.872;2023-04-30T14:11:27;6.03;;;3.67;;
13805;SDS011;6974;53.606;9.872;2023-04-30T14:13:53;4.57;;;3.30;;
13805;SDS011;6974;53.606;9.872;2023-04-30T14:16:22;6.77;;;3.73;;
13805;SDS011;6974;53.606;9.872;2023-04-30T14:18:48;5.50;;;3.40;;
13805;SDS011;6974;53.606;9.872;2023-04-30T14:21:15;6.37;;;3.50;;
13805;SDS011;6974;53.606;9.872;2023-04-30T14:23:42;6.03;;;3.70;;
13805;SDS011;6974;53.606;9.872;2023-04-30T14:26:10;6.03;;;3.97;;
13805;SDS011;6974;53.606;9.872;2023-04-30T14:28:37;5.67;;;3.47;;
13805;SDS011;6974;53.606;9.872;2023-04-30T14:31:04;6.93;;;4.00;;
13805;SDS011;6974;53.606;9.872;2023-04-30T14:33:33;5.17;;;3.73;;
13805;SDS011;6974;53.606;9.872;2023-04-30T14:35:59;7.57;;;3.90;;
13805;SDS011;6974;53.606;9.872;2023-04-30T14:38:26;6.77;;;4.30;;
13805;SDS011;6974;53.606;9.872;2023-04-30T14:40:53;6.50;;;4.20;;
13805;SDS011;6974;53.606;9.872;2023-04-30T14:43:20;5.00;;;3.30;;
13805;SDS011;6974;53.606;9.872;2023-04-30T14:45:47;5.83;;;3.63;;
13805;SDS011;6974;53.606;9.872;2023-04-30T14:48:14;4.80;;;3.53;;
13805;SDS011;6974;53.606;9.872;2023-04-30T14:50:43;4.80;;;3.43;;
13805;SDS011;6974;53.606;9.872;2023-04-30T14:53:10;5.37;;;3.20;;
13805;SDS011;6974;53.606;9.872;2023-04-30T14:55:37;4.53;;;3.43;;
13805;SDS011;6974;53.606;9.872;2023-04-30T14:58:04;5.83;;;3.70;;
13805;SDS011;6974;53.606;9.872;2023-04-30T15:00:31;7.50;;;3.40;;
13805;SDS011;6974;53.606;9.872;2023-04-30T15:02:58;4.93;;;3.67;;
13805;SDS011;6974;53.606;9.872;2023-04-30T15:05:25;6.00;;;3.87;;
13805;SDS011;6974;53.606;9.872;2023-04-30T15:07:55;5.43;;;4.00;;
13805;SDS011;6974;53.606;9.872;2023-04-30T15:10:21;5.93;;;3.60;;